Time;durP1;ratioP1;P1;durP2;ratioP2;P2;SDS_P1;SDS_P2;PMS_P1;PMS_P2;Temp;Humidity;BMP_temperature;BMP_pressure;BME280_temperature;BME280_humidity;BME280_pressure;Samples;Min_cycle;Max_cycle;Signal;HPM_P1;HPM_P2
2022/03/16 00:03:10;;;;;;;;;;;;;;;6.76;66.70898;102545.7;;;;-79
2022/03/16 00:08:09;;;;;;;;;;;;;;;6.74;66.87012;102544.3;;;;-81
2022/03/16 00:10:49;;;;;;;12.8;6.6;;;;;;;;;;;;;-80
2022/03/16 00:13:11;;;;;;;;;;;;;;;6.69;67.34766;102547.9;;;;-81
2022/03/16 00:18:09;;;;;;;;;;;;;;;6.65;67.14258;102547.4;;;;-82
2022/03/16 00:23:09;;;;;;;;;;;;;;;6.62;67.22656;102552;;;;-81
2022/03/16 00:28:12;;;;;;;;;;;;;;;6.58;67.36328;102553.8;;;;-82
2022/03/16 00:33:11;;;;;;;;;;;;;;;6.54;67.11426;102550.5;;;;-81
2022/03/16 00:38:09;;;;;;;;;;;;;;;6.49;67.10742;102547.7;;;;-81
2022/03/16 00:40:47;;;;;;;17.2;7.1;;;;;;;;;;;;;-81
2022/03/16 00:43:09;;;;;;;;;;;;;;;6.44;67.02344;102553.5;;;;-79
2022/03/16 00:48:09;;;;;;;;;;;;;;;6.41;67.44629;102553.7;;;;-80
2022/03/16 00:53:09;;;;;;;;;;;;;;;6.36;67.22949;102557.9;;;;-81
2022/03/16 00:58:08;;;;;;;;;;;;;;;6.33;67.45605;102555.2;;;;-79
2022/03/16 01:03:08;;;;;;;;;;;;;;;6.29;67.625;102556.8;;;;-80
2022/03/16 01:08:14;;;;;;;;;;;;;;;6.26;67.74316;102556.3;;;;-80
2022/03/16 01:15:25;;;;;;;;;;;;;;;6.22;67.52637;102541.7;;;;-84
2022/03/16 01:20:23;;;;;;;;;;;;;;;6.2;67.48926;102543;;;;-81
2022/03/16 01:25:24;;;;;;;;;;;;;;;6.17;67.67383;102538.8;;;;-81
2022/03/16 01:30:31;;;;;;;;;;;;;;;6.16;67.21973;102545.9;;;;-81
2022/03/16 01:35:23;;;;;;;;;;;;;;;6.12;67.14844;102543.7;;;;-80
2022/03/16 01:40:23;;;;;;;;;;;;;;;6.08;67.56055;102544.9;;;;-80
2022/03/16 01:41:07;;;;;;;18.8;8.5;;;;;;;;;;;;;-82
2022/03/16 01:45:23;;;;;;;;;;;;;;;6.06;67.80859;102545.6;;;;-82
2022/03/16 01:50:23;;;;;;;;;;;;;;;6.04;67.77344;102553.6;;;;-80
2022/03/16 01:55:24;;;;;;;;;;;;;;;6.01;68.11133;102551.7;;;;-81
2022/03/16 02:00:23;;;;;;;;;;;;;;;5.99;68.07227;102548.8;;;;-83
2022/03/16 02:05:23;;;;;;;;;;;;;;;5.96;69.01465;102553.7;;;;-81
2022/03/16 02:10:24;;;;;;;;;;;;;;;5.94;67.97754;102552.8;;;;-82
2022/03/16 02:10:48;;;;;;;20.8;9.5;;;;;;;;;;;;;-81
2022/03/16 02:15:24;;;;;;;;;;;;;;;5.91;67.78613;102542.2;;;;-81
2022/03/16 02:20:23;;;;;;;;;;;;;;;5.88;68.07715;102550.6;;;;-83
2022/03/16 02:25:24;;;;;;;;;;;;;;;5.84;68.78613;102547.4;;;;-80
2022/03/16 02:30:26;;;;;;;;;;;;;;;5.82;68.48535;102546.9;;;;-81
2022/03/16 02:35:24;;;;;;;;;;;;;;;5.79;68.48242;102545.1;;;;-80
2022/03/16 02:40:26;;;;;;;;;;;;;;;5.78;68.12695;102540.2;;;;-80
2022/03/16 02:40:49;;;;;;;21.9;10.1;;;;;;;;;;;;;-81
2022/03/16 02:45:23;;;;;;;;;;;;;;;5.75;67.99219;102537.4;;;;-81
2022/03/16 02:50:23;;;;;;;;;;;;;;;5.74;68.00098;102532.3;;;;-81
2022/03/16 02:55:26;;;;;;;;;;;;;;;5.7;67.80859;102528.9;;;;-81
2022/03/16 03:00:26;;;;;;;;;;;;;;;5.67;67.78223;102532.9;;;;-82
2022/03/16 03:05:24;;;;;;;;;;;;;;;5.65;68.06348;102529.4;;;;-80
2022/03/16 03:10:29;;;;;;;;;;;;;;;5.63;67.85059;102522.7;;;;-80
2022/03/16 03:10:48;;;;;;;23.7;10.5;;;;;;;;;;;;;-79
2022/03/16 03:15:23;;;;;;;;;;;;;;;5.61;67.9707;102513.3;;;;-80
2022/03/16 03:20:23;;;;;;;;;;;;;;;5.6;68.07813;102507.9;;;;-80
2022/03/16 03:25:23;;;;;;;;;;;;;;;5.58;68.05176;102512.2;;;;-81
2022/03/16 03:30:26;;;;;;;;;;;;;;;5.55;67.77246;102510;;;;-81
2022/03/16 03:35:23;;;;;;;;;;;;;;;5.52;67.80176;102506.4;;;;-81
2022/03/16 03:40:23;;;;;;;;;;;;;;;5.5;67.76563;102507.8;;;;-80
2022/03/16 03:40:48;;;;;;;22.9;10.5;;;;;;;;;;;;;-80
2022/03/16 03:45:23;;;;;;;;;;;;;;;5.48;67.64063;102509.5;;;;-80
2022/03/16 03:50:23;;;;;;;;;;;;;;;5.46;67.73633;102506.3;;;;-80
2022/03/16 03:55:23;;;;;;;;;;;;;;;5.42;67.73242;102506.5;;;;-82
2022/03/16 04:00:23;;;;;;;;;;;;;;;5.39;67.94727;102507;;;;-81
2022/03/16 04:05:24;;;;;;;;;;;;;;;5.38;68.14063;102507.7;;;;-81
2022/03/16 04:10:23;;;;;;;;;;;;;;;5.36;68.0293;102510.2;;;;-80
2022/03/16 04:10:48;;;;;;;22.5;10.1;;;;;;;;;;;;;-82
2022/03/16 04:15:24;;;;;;;;;;;;;;;5.37;68.10742;102497.3;;;;-81
2022/03/16 04:20:23;;;;;;;;;;;;;;;5.34;68.2793;102500.7;;;;-80
2022/03/16 04:25:23;;;;;;;;;;;;;;;5.33;67.95801;102493.4;;;;-78
2022/03/16 04:30:23;;;;;;;;;;;;;;;5.3;68.22754;102493.7;;;;-79
2022/03/16 04:35:24;;;;;;;;;;;;;;;5.27;68.30078;102491.7;;;;-79
2022/03/16 04:40:23;;;;;;;;;;;;;;;5.24;68.74609;102488.5;;;;-81
2022/03/16 04:40:48;;;;;;;24;10.7;;;;;;;;;;;;;-82
2022/03/16 04:45:25;;;;;;;;;;;;;;;5.22;68.7207;102484.8;;;;-80
2022/03/16 04:50:26;;;;;;;;;;;;;;;5.24;68.84277;102479.9;;;;-80
2022/03/16 04:55:26;;;;;;;;;;;;;;;5.23;69.38965;102483.6;;;;-80
2022/03/16 05:00:26;;;;;;;;;;;;;;;5.22;69.40039;102482;;;;-81
2022/03/16 05:05:23;;;;;;;;;;;;;;;5.22;69.65137;102479.8;;;;-78
2022/03/16 05:10:24;;;;;;;;;;;;;;;5.21;69.70508;102476.5;;;;-80
2022/03/16 05:10:49;;;;;;;28.4;12.1;;;;;;;;;;;;;-80
2022/03/16 05:15:24;;;;;;;;;;;;;;;5.2;69.44043;102487.1;;;;-82
2022/03/16 05:20:27;;;;;;;;;;;;;;;5.19;69.42773;102483.8;;;;-82
2022/03/16 05:25:24;;;;;;;;;;;;;;;5.2;69.78027;102486.9;;;;-80
2022/03/16 05:30:26;;;;;;;;;;;;;;;5.18;69.84277;102490.1;;;;-80
2022/03/16 05:35:24;;;;;;;;;;;;;;;5.16;69.74121;102493.7;;;;-83
2022/03/16 05:40:26;;;;;;;;;;;;;;;5.15;69.93555;102489.1;;;;-81
2022/03/16 05:40:49;;;;;;;23.5;10.2;;;;;;;;;;;;;-81
2022/03/16 05:45:23;;;;;;;;;;;;;;;5.14;70.1875;102492;;;;-81
2022/03/16 05:50:24;;;;;;;;;;;;;;;5.13;70.80957;102499.7;;;;-79
2022/03/16 05:55:23;;;;;;;;;;;;;;;5.14;71.12988;102502.9;;;;-80
2022/03/16 06:00:25;;;;;;;;;;;;;;;5.16;71.0332;102499.2;;;;-79
2022/03/16 06:05:25;;;;;;;;;;;;;;;5.17;71.35352;102499.5;;;;-80
2022/03/16 06:10:23;;;;;;;;;;;;;;;5.2;71.45703;102500.8;;;;-80
2022/03/16 06:10:49;;;;;;;22.4;9.2;;;;;;;;;;;;;-80
2022/03/16 06:15:24;;;;;;;;;;;;;;;5.21;71.39453;102505.7;;;;-80
2022/03/16 06:20:24;;;;;;;;;;;;;;;5.23;71.19824;102513.1;;;;-80
2022/03/16 06:25:24;;;;;;;;;;;;;;;5.26;71.14844;102515.9;;;;-80
2022/03/16 06:30:23;;;;;;;;;;;;;;;5.27;71.28223;102520.4;;;;-79
2022/03/16 06:35:23;;;;;;;;;;;;;;;5.27;70.89746;102516.1;;;;-80
2022/03/16 06:40:24;;;;;;;;;;;;;;;5.32;70.79688;102525.8;;;;-81
2022/03/16 06:40:49;;;;;;;21.4;9.3;;;;;;;;;;;;;-81
2022/03/16 06:45:23;;;;;;;;;;;;;;;5.38;70.54297;102526.8;;;;-80
2022/03/16 06:50:27;;;;;;;;;;;;;;;5.41;70.60449;102524;;;;-79
2022/03/16 06:55:23;;;;;;;;;;;;;;;5.49;70.93359;102523.2;;;;-79
2022/03/16 07:00:23;;;;;;;;;;;;;;;5.62;70.08887;102523.6;;;;-80
2022/03/16 07:05:24;;;;;;;;;;;;;;;5.8;70.27246;102516.8;;;;-80
2022/03/16 07:10:23;;;;;;;;;;;;;;;5.92;70.31348;102521.1;;;;-79
2022/03/16 07:10:49;;;;;;;24.3;10.9;;;;;;;;;;;;;-81
2022/03/16 07:15:23;;;;;;;;;;;;;;;6;70.10547;102519.5;;;;-80
2022/03/16 07:20:23;;;;;;;;;;;;;;;6.1;70.30859;102516.7;;;;-80
2022/03/16 07:25:23;;;;;;;;;;;;;;;6.22;70.50488;102508.1;;;;-79
2022/03/16 07:30:23;;;;;;;;;;;;;;;6.31;70.32422;102503.8;;;;-78
2022/03/16 07:35:26;;;;;;;;;;;;;;;6.48;71.00879;102496.1;;;;-79
2022/03/16 07:40:23;;;;;;;;;;;;;;;6.68;70.33789;102497.6;;;;-80
2022/03/16 07:40:51;;;;;;;23.2;11.1;;;;;;;;;;;;;-81
2022/03/16 07:45:23;;;;;;;;;;;;;;;6.93;70.44629;102490.8;;;;-81
2022/03/16 07:50:23;;;;;;;;;;;;;;;7.19;69.99219;102480.9;;;;-80
2022/03/16 07:55:23;;;;;;;;;;;;;;;7.52;69.6582;102479.9;;;;-81
2022/03/16 08:00:24;;;;;;;;;;;;;;;7.87;69.39551;102469.7;;;;-81
2022/03/16 08:05:24;;;;;;;;;;;;;;;8.17;69.00098;102473;;;;-80
2022/03/16 08:10:23;;;;;;;;;;;;;;;8.5;68.67773;102465.4;;;;-80
2022/03/16 08:10:49;;;;;;;23;11.2;;;;;;;;;;;;;-80
2022/03/16 08:15:23;;;;;;;;;;;;;;;8.87;68.08398;102462.8;;;;-79
2022/03/16 08:20:23;;;;;;;;;;;;;;;9.14;67.23047;102458.7;;;;-80
2022/03/16 08:25:23;;;;;;;;;;;;;;;9.34;67.36133;102450.3;;;;-80
2022/03/16 08:30:23;;;;;;;;;;;;;;;9.66;66.52344;102444.8;;;;-81
2022/03/16 08:35:23;;;;;;;;;;;;;;;9.73;66.10156;102442.9;;;;-81
2022/03/16 08:40:26;;;;;;;;;;;;;;;9.78;65.44336;102441.4;;;;-81
2022/03/16 08:40:53;;;;;;;23.1;11;;;;;;;;;;;;;-81
2022/03/16 08:45:23;;;;;;;;;;;;;;;9.79;65.27832;102441.7;;;;-79
2022/03/16 08:50:25;;;;;;;;;;;;;;;9.85;65.27637;102438.7;;;;-79
2022/03/16 08:55:23;;;;;;;;;;;;;;;10.03;65.05957;102441.4;;;;-81
2022/03/16 09:00:23;;;;;;;;;;;;;;;10.22;64.5332;102435.9;;;;-81
2022/03/16 09:05:25;;;;;;;;;;;;;;;10.38;63.83398;102430.2;;;;-82
2022/03/16 09:10:23;;;;;;;;;;;;;;;10.43;63.875;102427.6;;;;-80
2022/03/16 09:10:55;;;;;;;20.2;10.2;;;;;;;;;;;;;-80
2022/03/16 09:15:27;;;;;;;;;;;;;;;10.46;63.74512;102425.7;;;;-82
2022/03/16 09:20:23;;;;;;;;;;;;;;;10.56;64.01563;102434.7;;;;-80
2022/03/16 09:25:25;;;;;;;;;;;;;;;10.75;63.8877;102420;;;;-80
2022/03/16 09:30:24;;;;;;;;;;;;;;;11.07;63.51172;102425.3;;;;-81
2022/03/16 09:35:23;;;;;;;;;;;;;;;11.6;62.89746;102420.6;;;;-81
2022/03/16 09:40:24;;;;;;;;;;;;;;;11.95;60.44629;102415;;;;-80
2022/03/16 09:40:52;;;;;;;16.5;8.5;;;;;;;;;;;;;-80
2022/03/16 09:45:26;;;;;;;;;;;;;;;12.1;60.15527;102396.5;;;;-79
2022/03/16 09:50:25;;;;;;;;;;;;;;;12.46;60.03613;102398.3;;;;-82
2022/03/16 09:55:23;;;;;;;;;;;;;;;12.73;59.15625;102403.1;;;;-82
2022/03/16 10:00:23;;;;;;;;;;;;;;;12.88;58.5166;102406.4;;;;-81
2022/03/16 10:05:23;;;;;;;;;;;;;;;13.05;57.95605;102404.9;;;;-81
2022/03/16 10:15:23;;;;;;;;;;;;;;;13.32;56.97168;102401.3;;;;-82
2022/03/16 10:20:33;;;;;;;;;;;;;;;13.52;56.34766;102393.4;;;;-81
2022/03/16 10:25:36;;;;;;;;;;;;;;;13.71;57.08984;102400.2;;;;-81
2022/03/16 10:30:25;;;;;;;;;;;;;;;13.9;56.39648;102389.9;;;;-82
2022/03/16 10:35:24;;;;;;;;;;;;;;;14.12;56.17773;102382.3;;;;-84
2022/03/16 10:40:29;;;;;;;;;;;;;;;14.31;56.3125;102377;;;;-82
2022/03/16 10:40:52;;;;;;;12;7.1;;;;;;;;;;;;;-80
2022/03/16 10:50:26;;;;;;;;;;;;;;;14.67;57.2373;102370.8;;;;-81
2022/03/16 10:55:24;;;;;;;;;;;;;;;14.9;57.37891;102366.2;;;;-82
2022/03/16 11:00:27;;;;;;;;;;;;;;;15.16;57.14355;102367.3;;;;-80
2022/03/16 11:05:23;;;;;;;;;;;;;;;15.32;58.54785;102366;;;;-82
2022/03/16 11:10:32;;;;;;;;;;;;;;;15.52;57.28027;102358.9;;;;-79
2022/03/16 11:13:27;;;;;;;12.3;6.5;;;;;;;;;;;;;-83
2022/03/16 11:15:24;;;;;;;;;;;;;;;15.77;57.23242;102348.8;;;;-80
2022/03/16 11:20:27;;;;;;;;;;;;;;;15.9;57.5332;102358;;;;-81
2022/03/16 11:25:41;;;;;;;;;;;;;;;16.02;56.43066;102341.9;;;;-81
2022/03/16 11:30:41;;;;;;;;;;;;;;;16.19;57.64941;102349.1;;;;-81
2022/03/16 11:40:26;;;;;;;;;;;;;;;16.19;55.8877;102324.8;;;;-81
2022/03/16 11:40:58;;;;;;;10.8;6.2;;;;;;;;;;;;;-84
2022/03/16 11:50:32;;;;;;;;;;;;;;;16.45;57.41211;102326.5;;;;-81
2022/03/16 12:05:58;;;;;;;;;;;;;;;16.27;56.67773;102316.3;;;;-83
2022/03/16 12:12:50;;;;;;;;;;;;;;;16.22;57.17969;102308.6;;;;-83
2022/03/16 12:15:51;;;;;;;;;;;;;;;16.23;56.11816;102301.2;;;;-84
2022/03/16 12:36:38;;;;;;;;;;;;;;;16.08;56.82227;102295.1;;;;-81
2022/03/16 12:46:23;;;;;;;;;;;;;;;15.83;52.94141;102284;;;;-81
2022/03/16 12:51:01;;;;;;;;;;;;;;;15.22;51.94336;102275.5;;;;-83
2022/03/16 12:56:06;;;;;;;;;;;;;;;15.08;51.15039;102269.1;;;;-81
2022/03/16 13:01:04;;;;;;;;;;;;;;;15.1;51.10742;102261.5;;;;-82
2022/03/16 13:05:59;;;;;;;;;;;;;;;15.17;52.83008;102243.4;;;;-81
2022/03/16 13:11:19;;;;;;;;;;;;;;;15.18;53.49512;102243.3;;;;-83
2022/03/16 13:11:30;;;;;;;10.5;6.5;;;;;;;;;;;;;-83
2022/03/16 13:16:00;;;;;;;;;;;;;;;15.23;53.1416;102226.5;;;;-81
2022/03/16 13:20:58;;;;;;;;;;;;;;;15.1;52.23535;102215.9;;;;-82
2022/03/16 13:26:15;;;;;;;;;;;;;;;15.06;51.4873;102206.9;;;;-82
2022/03/16 13:30:56;;;;;;;;;;;;;;;14.83;53.75781;102193.5;;;;-81
2022/03/16 13:36:07;;;;;;;;;;;;;;;14.95;52.27344;102193.2;;;;-81
2022/03/16 13:40:58;;;;;;;;;;;;;;;14.91;52.4834;102188.5;;;;-81
2022/03/16 13:41:23;;;;;;;9.5;5.9;;;;;;;;;;;;;-81
2022/03/16 13:45:58;;;;;;;;;;;;;;;14.87;52.83887;102190;;;;-83
2022/03/16 13:51:12;;;;;;;;;;;;;;;14.79;52.40137;102182.8;;;;-79
2022/03/16 13:55:59;;;;;;;;;;;;;;;14.87;53.72852;102177.1;;;;-83
2022/03/16 14:01:00;;;;;;;;;;;;;;;14.69;52.92969;102164.8;;;;-82
2022/03/16 14:05:57;;;;;;;;;;;;;;;14.73;53.26074;102162.5;;;;-81
2022/03/16 14:10:57;;;;;;;;;;;;;;;14.72;52.77539;102149.9;;;;-82
2022/03/16 14:11:08;;;;;;;10.4;6.3;;;;;;;;;;;;;-82
2022/03/16 14:16:10;;;;;;;;;;;;;;;14.54;52.40527;102151.1;;;;-82
2022/03/16 14:21:01;;;;;;;;;;;;;;;14.53;53.39355;102140.8;;;;-83
2022/03/16 14:25:59;;;;;;;;;;;;;;;14.61;52.83984;102123.2;;;;-81
2022/03/16 14:30:56;;;;;;;;;;;;;;;14.37;53.54395;102106.1;;;;-80
2022/03/16 14:35:59;;;;;;;;;;;;;;;14.44;53.47363;102086.7;;;;-81
2022/03/16 14:40:58;;;;;;;;;;;;;;;14.18;53.75586;102082.1;;;;-82
2022/03/16 14:41:08;;;;;;;13.4;7;;;;;;;;;;;;;-82
2022/03/16 14:45:57;;;;;;;;;;;;;;;14.29;54.41211;102074.7;;;;-81
2022/03/16 14:50:57;;;;;;;;;;;;;;;14.18;54.54395;102076.6;;;;-82
2022/03/16 14:55:57;;;;;;;;;;;;;;;14.1;54.26465;102078.5;;;;-83
2022/03/16 15:00:56;;;;;;;;;;;;;;;14.06;54.51855;102072.8;;;;-81
2022/03/16 15:05:56;;;;;;;;;;;;;;;14.14;55.05566;102065.8;;;;-81
2022/03/16 15:10:57;;;;;;;;;;;;;;;14.15;55.16895;102077.8;;;;-83
2022/03/16 15:11:10;;;;;;;11.3;6.7;;;;;;;;;;;;;-82
2022/03/16 15:15:56;;;;;;;;;;;;;;;14.01;54.61328;102073.4;;;;-80
2022/03/16 15:21:00;;;;;;;;;;;;;;;13.76;55.29004;102076.6;;;;-80
2022/03/16 15:25:57;;;;;;;;;;;;;;;13.8;55.84473;102067.8;;;;-82
2022/03/16 15:30:59;;;;;;;;;;;;;;;13.8;56.22559;102080.9;;;;-80
2022/03/16 15:35:57;;;;;;;;;;;;;;;13.83;56.5332;102048.6;;;;-79
2022/03/16 15:45:56;;;;;;;;;;;;;;;13.68;56.11035;102037;;;;-79
2022/03/16 15:50:57;;;;;;;;;;;;;;;13.67;56.63672;102031.5;;;;-81
2022/03/16 15:55:58;;;;;;;;;;;;;;;13.57;56.30859;102034.5;;;;-81
2022/03/16 16:01:01;;;;;;;;;;;;;;;13.37;56.75488;102041.5;;;;-81
2022/03/16 16:05:56;;;;;;;;;;;;;;;13.33;57.13184;102045;;;;-80
2022/03/16 16:11:12;;;;;;;;;;;;;;;13.27;57.93066;102048.2;;;;-79
2022/03/16 16:11:22;;;;;;;11.4;6.6;;;;;;;;;;;;;-79
2022/03/16 16:15:59;;;;;;;;;;;;;;;13.21;57.6748;102042.3;;;;-81
2022/03/16 16:20:56;;;;;;;;;;;;;;;13.15;57.89258;102026;;;;-79
2022/03/16 16:25:57;;;;;;;;;;;;;;;13.11;58.21094;102020.3;;;;-80
2022/03/16 16:30:57;;;;;;;;;;;;;;;13.02;58.22168;102019.1;;;;-81
2022/03/16 16:35:57;;;;;;;;;;;;;;;12.98;58.46289;102015.6;;;;-79
2022/03/16 16:41:00;;;;;;;;;;;;;;;12.83;58.55469;102023;;;;-81
2022/03/16 16:41:20;;;;;;;13.4;7.2;;;;;;;;;;;;;-78
2022/03/16 16:45:58;;;;;;;;;;;;;;;12.77;58.61426;102026.4;;;;-80
2022/03/16 16:50:58;;;;;;;;;;;;;;;12.75;59.00195;102031.2;;;;-81
2022/03/16 16:56:00;;;;;;;;;;;;;;;12.69;59.12891;102038.9;;;;-80
2022/03/16 17:00:56;;;;;;;;;;;;;;;12.64;59.40234;102042;;;;-81
2022/03/16 17:05:57;;;;;;;;;;;;;;;12.59;59.68652;102048.7;;;;-82
2022/03/16 17:10:58;;;;;;;;;;;;;;;12.54;59.55566;102040.6;;;;-82
2022/03/16 17:11:17;;;;;;;13.1;7.2;;;;;;;;;;;;;-78
2022/03/16 17:15:59;;;;;;;;;;;;;;;12.43;59.9209;102035.4;;;;-80
2022/03/16 17:21:00;;;;;;;;;;;;;;;12.25;60.48926;102014.4;;;;-80
2022/03/16 17:25:57;;;;;;;;;;;;;;;12.22;60.38379;102020.5;;;;-80
2022/03/16 17:30:57;;;;;;;;;;;;;;;12.16;61.08008;102015.5;;;;-80
2022/03/16 17:35:58;;;;;;;;;;;;;;;12.11;61.16211;102006.9;;;;-80
2022/03/16 17:45:30;;;;;;;;;;;;;;;12.07;61.45801;102014.1;;;;-82
2022/03/16 17:45:58;;;;;;;;;;;;;;;12.07;61.06738;102008.3;;;;-81
2022/03/16 17:50:57;;;;;;;;;;;;;;;12.04;60.73828;102009;;;;-81
2022/03/16 18:01:01;;;;;;;;;;;;;;;11.88;60.92773;101982.6;;;;-81
2022/03/16 18:05:57;;;;;;;;;;;;;;;11.79;61.11914;101978.5;;;;-81
2022/03/16 18:15:59;;;;;;;;;;;;;;;11.64;61.21875;101984.7;;;;-82
2022/03/16 18:21:11;;;;;;;;;;;;;;;11.57;61.53418;101983.7;;;;-82
2022/03/16 18:26:01;;;;;;;;;;;;;;;11.51;61.73438;101985.7;;;;-83
2022/03/16 18:31:09;;;;;;;;;;;;;;;11.43;62.32617;101977.5;;;;-83
2022/03/16 18:35:58;;;;;;;;;;;;;;;11.37;62.08496;101973.3;;;;-81
2022/03/16 18:41:04;;;;;;;;;;;;;;;11.34;62.32422;101977.4;;;;-81
2022/03/16 18:41:28;;;;;;;12.1;6.4;;;;;;;;;;;;;-79
2022/03/16 18:46:01;;;;;;;;;;;;;;;11.29;62.38574;101976.9;;;;-80
2022/03/16 18:51:03;;;;;;;;;;;;;;;11.24;62.53418;101980.5;;;;-80
2022/03/16 18:55:57;;;;;;;;;;;;;;;11.21;62.71973;101981;;;;-82
2022/03/16 19:01:10;;;;;;;;;;;;;;;11.16;63.05566;101971.3;;;;-80
2022/03/16 19:05:56;;;;;;;;;;;;;;;11.13;63.18555;101959;;;;-82
2022/03/16 19:15:58;;;;;;;;;;;;;;;11.08;63.26758;101952;;;;-80
2022/03/16 19:21:08;;;;;;;;;;;;;;;11.06;63.34375;101962.8;;;;-80
2022/03/16 19:25:57;;;;;;;;;;;;;;;11.05;63.65234;101962.4;;;;-81
2022/03/16 19:30:56;;;;;;;;;;;;;;;11.02;63.76074;101957.1;;;;-81
2022/03/16 19:36:00;;;;;;;;;;;;;;;11.01;63.88086;101952.5;;;;-82
2022/03/16 19:41:05;;;;;;;;;;;;;;;11;63.79004;101952.9;;;;-80
2022/03/16 19:41:34;;;;;;;21.7;9.9;;;;;;;;;;;;;-83
2022/03/16 19:45:58;;;;;;;;;;;;;;;10.98;63.89941;101957.5;;;;-80
2022/03/16 19:50:57;;;;;;;;;;;;;;;10.98;64.22168;101960.4;;;;-79
2022/03/16 19:55:57;;;;;;;;;;;;;;;10.96;64.1084;101964;;;;-83
2022/03/16 20:00:58;;;;;;;;;;;;;;;10.95;64.17285;101957.1;;;;-81
2022/03/16 20:05:59;;;;;;;;;;;;;;;10.95;63.83984;101954.8;;;;-83
2022/03/16 20:10:59;;;;;;;;;;;;;;;10.93;64.28223;101953.4;;;;-82
2022/03/16 20:11:24;;;;;;;34.3;16.1;;;;;;;;;;;;;-82
2022/03/16 20:16:00;;;;;;;;;;;;;;;10.91;64.22363;101945.9;;;;-81
2022/03/16 20:21:00;;;;;;;;;;;;;;;10.89;64.28613;101942.3;;;;-81
2022/03/16 20:26:02;;;;;;;;;;;;;;;10.87;64.27246;101936.5;;;;-80
2022/03/16 20:30:57;;;;;;;;;;;;;;;10.86;64.31445;101927.7;;;;-81
2022/03/16 20:35:58;;;;;;;;;;;;;;;10.84;64.24609;101928.2;;;;-79
2022/03/16 20:40:56;;;;;;;;;;;;;;;10.83;64.36719;101926.8;;;;-82
2022/03/16 20:41:29;;;;;;;22.4;11;;;;;;;;;;;;;-82
2022/03/16 20:46:03;;;;;;;;;;;;;;;10.81;64.50781;101927.6;;;;-80
2022/03/16 20:51:00;;;;;;;;;;;;;;;10.79;64.68359;101921.2;;;;-81
2022/03/16 20:55:57;;;;;;;;;;;;;;;10.78;64.4375;101921;;;;-81
2022/03/16 21:00:57;;;;;;;;;;;;;;;10.75;64.92285;101918.8;;;;-79
2022/03/16 21:05:56;;;;;;;;;;;;;;;10.73;64.70898;101918.2;;;;-81
2022/03/16 21:11:02;;;;;;;;;;;;;;;10.72;64.76172;101917.5;;;;-81
2022/03/16 21:11:28;;;;;;;16.5;8.4;;;;;;;;;;;;;-79
2022/03/16 21:16:10;;;;;;;;;;;;;;;;;;;;;
2022/03/16 21:20:58;;;;;;;;;;;;;;;10.69;65.16895;101913.7;;;;-81
2022/03/16 21:26:00;;;;;;;;;;;;;;;10.67;64.96582;101917.6;;;;-81
2022/03/16 21:31:01;;;;;;;;;;;;;;;10.65;65.38574;101914.1;;;;-81
2022/03/16 21:36:04;;;;;;;;;;;;;;;10.63;65.59375;101916.5;;;;-79
2022/03/16 21:45:58;;;;;;;;;;;;;;;10.62;65.79102;101918.3;;;;-82
2022/03/16 21:55:58;;;;;;;;;;;;;;;10.6;65.89941;101919.5;;;;-81
2022/03/16 22:00:58;;;;;;;;;;;;;;;10.58;65.94141;101919.2;;;;-79
2022/03/16 22:06:00;;;;;;;;;;;;;;;10.59;66.02051;101904.7;;;;-80
2022/03/16 22:10:58;;;;;;;;;;;;;;;10.58;66.21973;101900.2;;;;-79
2022/03/16 22:11:39;;;;;;;15.1;8.3;;;;;;;;;;;;;-80
2022/03/16 22:16:00;;;;;;;;;;;;;;;10.58;66.31934;101901;;;;-80
2022/03/16 22:25:57;;;;;;;;;;;;;;;10.55;66.50391;101892.9;;;;-80
2022/03/16 22:30:57;;;;;;;;;;;;;;;10.54;66.74609;101897.6;;;;-81
2022/03/16 22:35:59;;;;;;;;;;;;;;;10.51;66.51953;101897.7;;;;-80
2022/03/16 22:40:58;;;;;;;;;;;;;;;10.49;66.67383;101912.4;;;;-80
2022/03/16 22:41:30;;;;;;;17.7;8.8;;;;;;;;;;;;;-81
2022/03/16 22:45:56;;;;;;;;;;;;;;;10.47;66.77051;101909.7;;;;-80
2022/03/16 22:50:56;;;;;;;;;;;;;;;10.45;67.11035;101900.8;;;;-80
2022/03/16 22:55:57;;;;;;;;;;;;;;;10.44;67.03027;101893.9;;;;-81
2022/03/16 23:01:01;;;;;;;;;;;;;;;10.44;67.08594;101898;;;;-81
2022/03/16 23:06:02;;;;;;;;;;;;;;;10.44;67.29688;101896.8;;;;-81
2022/03/16 23:11:04;;;;;;;;;;;;;;;10.43;67.60742;101889.4;;;;-81
2022/03/16 23:11:34;;;;;;;16.7;9.3;;;;;;;;;;;;;-82
2022/03/16 23:15:58;;;;;;;;;;;;;;;10.41;67.65918;101884.5;;;;-81
2022/03/16 23:20:57;;;;;;;;;;;;;;;10.39;68.05762;101880.8;;;;-82
2022/03/16 23:26:01;;;;;;;;;;;;;;;10.37;68.00879;101869.9;;;;-81
2022/03/16 23:30:58;;;;;;;;;;;;;;;10.36;68.0957;101869.7;;;;-80
2022/03/16 23:35:59;;;;;;;;;;;;;;;10.34;68.23535;101864;;;;-81
2022/03/16 23:40:58;;;;;;;;;;;;;;;10.32;68.12207;101860.6;;;;-80
2022/03/16 23:41:32;;;;;;;17;9.5;;;;;;;;;;;;;-81
2022/03/16 23:45:57;;;;;;;;;;;;;;;10.29;68.11816;101853.7;;;;-79
2022/03/16 23:50:56;;;;;;;;;;;;;;;10.29;68.60449;101852.4;;;;-81
2022/03/16 23:56:02;;;;;;;;;;;;;;;10.27;68.55859;101849.2;;;;-80
